CheckWX is a tool to help pilots better visualize weather data.  It is not intended as a substitute for an official pre-flight weather briefing.

14:23:32 UTC

KOGD METAR
Ogden-Hinckley Airport
Ogden, Utah, USA
Current

2 hours ago

KOGD 161253Z 18007KT 10SM CLR 18/03 A2997 RMK AO2 SLP086 T01780033
Observed
Jul-16 @ 12:53 UTC
Wind
  • 180° at 7 KTS
Visibility
10 SM
Flight Rules
VFR
Cloud Levels
  • Clear skies
Temperature
18°C / 64°F
Dewpoint
C / 37°F
Humidity
37%
Altimeter
29.97" Hg
Pressure
1014.92 hPa
Previous

3 hours ago

KOGD 161153Z AUTO 17005KT 10SM CLR 18/03 A2996 RMK AO2 SLP082 T01780033 10256 20167 53005
Observed
Jul-16 @ 11:53 UTC
Wind
  • 170° at 5 KTS
Visibility
10 SM
Flight Rules
VFR
Cloud Levels
  • Clear skies
Temperature
18°C / 64°F
Dewpoint
C / 37°F
Humidity
37%
Altimeter
29.96" Hg
Pressure
1014.52 hPa
Previous

4 hours ago

KOGD 161053Z AUTO 19005KT 10SM CLR 18/04 A2994 RMK AO2 SLP076 T01780039
Observed
Jul-16 @ 10:53 UTC
Wind
  • 190° at 5 KTS
Visibility
10 SM
Flight Rules
VFR
Cloud Levels
  • Clear skies
Temperature
18°C / 64°F
Dewpoint
C / 39°F
Humidity
40%
Altimeter
29.94" Hg
Pressure
1013.92 hPa